Time;durP1;ratioP1;P1;durP2;ratioP2;P2;SDS_P1;SDS_P2;PMS_P1;PMS_P2;Temp;Humidity;BMP_temperature;BMP_pressure;BME280_temperature;BME280_humidity;BME280_pressure;Samples;Min_cycle;Max_cycle;Signal;HPM_P1;HPM_P2
2023/03/15 00:02:11;;;;;;;11.25;1.85;;;;;;;1.26;61.64;99823.22;10437251;28;20056;-78
2023/03/15 00:07:14;;;;;;;12.52;1.95;;;;;;;1.44;61.64;99822.25;10441818;28;20041;-77
2023/03/15 00:12:21;;;;;;;8.82;1.90;;;;;;;1.00;62.24;99829.84;10425796;28;20080;-77
2023/03/15 00:17:24;;;;;;;11.15;1.83;;;;;;;1.09;62.39;99847.88;10430263;28;20072;-75
2023/03/15 00:22:27;;;;;;;19.55;1.80;;;;;;;1.30;61.82;99853.03;10433774;28;20053;-77
2023/03/15 00:27:31;;;;;;;6.35;1.38;;;;;;;1.04;62.30;99849.91;10453624;28;20037;-77
2023/03/15 00:32:34;;;;;;;10.20;2.30;;;;;;;1.41;61.44;99845.41;10442194;28;20060;-77
2023/03/15 00:37:38;;;;;;;7.30;2.08;;;;;;;1.51;61.64;99857.22;10449333;28;20133;-76
2023/03/15 00:42:48;;;;;;;11.73;2.00;;;;;;;1.55;60.97;99847.34;10446468;28;20040;-75
2023/03/15 00:47:53;;;;;;;13.80;2.25;;;;;;;1.41;61.24;99855.97;10452863;28;20033;-77
2023/03/15 00:52:55;;;;;;;12.00;2.85;;;;;;;1.68;61.04;99849.25;10444067;28;20038;-77
2023/03/15 00:58:00;;;;;;;10.70;2.08;;;;;;;1.82;60.40;99855.63;10425316;28;20085;-78
2023/03/15 01:03:03;;;;;;;14.43;1.90;;;;;;;1.76;60.63;99856.81;10441068;28;20079;-75
2023/03/15 01:08:06;;;;;;;5.47;1.55;;;;;;;1.31;61.37;99863.53;10424759;28;20037;-77
2023/03/15 01:13:10;;;;;;;15.70;2.10;;;;;;;1.72;61.49;99857.88;10447576;28;20556;-77
2023/03/15 01:18:13;;;;;;;8.57;1.50;;;;;;;1.28;62.38;99874.28;10441043;28;20040;-77
2023/03/15 01:23:16;;;;;;;6.00;1.88;;;;;;;1.48;63.13;99867.94;10446464;28;20049;-77
2023/03/15 01:28:22;;;;;;;8.70;1.70;;;;;;;1.16;64.06;99883.69;10436023;28;20044;-77
2023/03/15 01:33:25;;;;;;;10.00;1.52;;;;;;;1.01;64.98;99885.28;10443284;28;20044;-77
2023/03/15 01:38:28;;;;;;;13.63;2.33;;;;;;;1.07;66.15;99897.38;10433460;28;20129;-77
2023/03/15 01:43:33;;;;;;;8.43;1.38;;;;;;;0.88;70.69;99896.53;10444613;28;20051;-77
2023/03/15 01:48:43;;;;;;;6.47;1.67;;;;;;;0.88;73.18;99899.19;10454217;28;20045;-77
2023/03/15 01:53:53;;;;;;;9.40;2.13;;;;;;;0.43;76.62;99898.69;10427196;28;20036;-77
2023/03/15 01:59:01;;;;;;;7.90;2.70;;;;;;;0.63;77.22;99892.44;10444556;28;20065;-77
2023/03/15 02:04:09;;;;;;;14.88;2.58;;;;;;;0.48;79.04;99895.81;10437118;28;20052;-78
2023/03/15 02:09:18;;;;;;;13.43;2.55;;;;;;;0.23;80.17;99911.97;10445705;28;20044;-75
2023/03/15 02:14:24;;;;;;;5.68;2.92;;;;;;;0.32;80.13;99916.81;10445811;28;20045;-76
2023/03/15 02:19:40;;;;;;;9.13;3.67;;;;;;;0.16;81.00;99908.72;10448798;28;20442;-75
2023/03/15 02:24:51;;;;;;;7.40;2.88;;;;;;;0.47;81.14;99913.47;10431966;28;20055;-77
2023/03/15 02:29:55;;;;;;;10.77;3.92;;;;;;;0.57;81.72;99916.53;10421523;28;20048;-77
2023/03/15 02:34:59;;;;;;;5.13;2.78;;;;;;;0.15;83.17;99915.81;10439284;28;20044;-75
2023/03/15 02:40:02;;;;;;;5.88;2.53;;;;;;;0.17;83.26;99924.53;10430936;28;20049;-76
2023/03/15 02:45:07;;;;;;;5.20;3.30;;;;;;;0.10;84.93;99932.78;10440333;28;20046;-75
2023/03/15 02:50:11;;;;;;;11.55;3.92;;;;;;;0.45;82.82;99932.97;10432514;28;20052;-77
2023/03/15 02:55:14;;;;;;;4.93;2.40;;;;;;;0.14;83.80;99950.22;10441746;28;20047;-77
2023/03/15 03:00:19;;;;;;;7.43;3.22;;;;;;;0.33;83.49;99952.88;10442547;28;20037;-77
2023/03/15 03:05:22;;;;;;;5.55;4.28;;;;;;;0.53;82.71;99963.41;10438471;28;20047;-77
2023/03/15 03:10:26;;;;;;;7.45;3.67;;;;;;;0.33;82.89;99969.59;10448785;28;20570;-76
2023/03/15 03:15:33;;;;;;;7.03;3.55;;;;;;;0.45;83.83;99985.81;10461793;28;20041;-77
2023/03/15 03:20:36;;;;;;;5.38;3.38;;;;;;;0.41;83.39;100000.94;10448150;28;20055;-77
2023/03/15 03:26:26;;;;;;;4.53;3.75;;;;;;;0.60;82.63;100012.41;10421338;28;20041;-77
2023/03/15 03:31:32;;;;;;;4.13;2.42;;;;;;;0.23;84.07;100021.13;10440559;28;20030;-77
2023/03/15 03:36:36;;;;;;;9.38;6.78;;;;;;;0.77;82.38;100019.56;10426497;28;20099;-78
2023/03/15 03:41:39;;;;;;;9.20;6.80;;;;;;;0.37;82.85;100023.16;10426238;28;20072;-76
2023/03/15 03:46:46;;;;;;;9.60;5.35;;;;;;;0.11;84.92;100027.81;10426980;28;20041;-77
2023/03/15 03:51:49;;;;;;;9.82;5.72;;;;;;;0.44;83.75;100040.47;10435332;28;20049;-77
2023/03/15 03:56:53;;;;;;;11.60;7.40;;;;;;;0.47;83.58;100042.97;10441495;23;20403;-74
2023/03/15 04:02:00;;;;;;;11.38;6.78;;;;;;;0.89;81.13;100059.59;10422768;28;20407;-75
2023/03/15 04:07:04;;;;;;;12.32;6.78;;;;;;;0.69;81.74;100063.16;10429763;28;20042;-73
2023/03/15 04:12:11;;;;;;;6.15;3.75;;;;;;;0.47;81.55;100061.47;10420534;28;20049;-75
2023/03/15 04:17:18;;;;;;;7.15;4.43;;;;;;;0.51;81.09;100080.69;10433822;28;20056;-75
2023/03/15 04:22:21;;;;;;;7.68;4.82;;;;;;;0.80;80.42;100071.47;10421954;28;20073;-74
2023/03/15 04:27:42;;;;;;;6.18;4.07;;;;;;;0.56;80.75;100074.28;10429293;28;20049;-73
2023/03/15 04:33:16;;;;;;;7.60;3.43;;;;;;;0.37;81.57;100099.78;10425693;28;20047;-74
2023/03/15 04:38:35;;;;;;;11.65;5.60;;;;;;;0.56;81.25;100098.06;10440968;28;20478;-75
2023/03/15 04:43:56;;;;;;;11.60;6.35;;;;;;;0.86;80.02;100102.06;10426063;28;20183;-75
2023/03/15 04:49:15;;;;;;;10.80;5.65;;;;;;;1.10;78.45;100126.50;10423691;28;20047;-75
2023/03/15 04:54:33;;;;;;;12.80;5.97;;;;;;;1.04;78.74;100125.88;10425480;28;20120;-73
2023/03/15 04:59:48;;;;;;;11.18;4.78;;;;;;;0.69;80.24;100121.31;10416734;28;20099;-75
2023/03/15 05:05:09;;;;;;;6.35;3.95;;;;;;;0.64;79.96;100124.16;10419032;28;20045;-74
2023/03/15 05:10:24;;;;;;;7.18;4.88;;;;;;;0.74;79.63;100119.31;10418951;28;20059;-75
2023/03/15 05:15:47;;;;;;;6.82;4.32;;;;;;;0.56;80.04;100150.06;10448528;28;20146;-75
2023/03/15 05:21:12;;;;;;;4.35;2.65;;;;;;;0.64;80.10;100147.09;10434430;28;20053;-74
2023/03/15 05:26:31;;;;;;;10.05;4.07;;;;;;;0.89;79.99;100158.31;10426438;28;20049;-74
2023/03/15 05:32:12;;;;;;;11.60;5.25;;;;;;;0.68;79.81;100157.44;10272419;28;20051;-73
2023/03/15 05:37:31;;;;;;;17.08;8.02;;;;;;;0.77;79.65;100172.09;10403285;28;20064;-72
2023/03/15 05:42:50;;;;;;;16.90;7.20;;;;;;;1.14;78.87;100175.72;10461631;28;20513;-73
2023/03/15 05:48:19;;;;;;;12.93;6.40;;;;;;;1.27;77.67;100176.88;10435252;28;20044;-73
2023/03/15 05:53:33;;;;;;;14.88;6.97;;;;;;;1.09;78.30;100198.88;10432278;28;20049;-74
2023/03/15 05:58:47;;;;;;;15.32;7.47;;;;;;;1.09;78.34;100212.97;10438071;28;20045;-74
2023/03/15 06:03:59;;;;;;;12.73;6.30;;;;;;;1.09;78.39;100228.84;10422598;28;20037;-73
2023/03/15 06:09:07;;;;;;;10.73;6.05;;;;;;;0.89;79.26;100237.66;10422102;28;20092;-75
2023/03/15 06:14:10;;;;;;;11.80;6.43;;;;;;;1.16;78.57;100243.53;10424723;28;20060;-73
2023/03/15 06:19:23;;;;;;;12.57;6.50;;;;;;;1.08;79.13;100247.44;10418730;28;20048;-74
2023/03/15 06:24:30;;;;;;;14.80;7.38;;;;;;;1.06;78.83;100253.63;10428801;28;20049;-73
2023/03/15 06:29:33;;;;;;;11.48;5.22;;;;;;;1.19;78.29;100261.06;10432183;28;20048;-73
2023/03/15 06:34:37;;;;;;;14.05;5.68;;;;;;;0.71;79.07;100273.66;10428456;28;20099;-74
2023/03/15 06:39:43;;;;;;;9.57;5.50;;;;;;;1.19;78.43;100287.50;10415567;28;20496;-74
2023/03/15 06:44:46;;;;;;;13.93;6.63;;;;;;;1.16;78.14;100287.66;10419559;28;20140;-74
2023/03/15 06:49:51;;;;;;;11.55;5.50;;;;;;;1.19;78.53;100292.81;10423394;28;20068;-74
2023/03/15 06:54:55;;;;;;;12.35;5.95;;;;;;;1.37;77.81;100301.69;10433377;28;20037;-72
2023/03/15 06:59:58;;;;;;;11.38;6.78;;;;;;;2.14;75.01;100301.72;10428401;28;20053;-73
2023/03/15 07:05:01;;;;;;;19.42;6.97;;;;;;;2.11;73.83;100305.38;10448008;28;20562;-73
2023/03/15 07:10:06;;;;;;;11.73;6.47;;;;;;;2.24;73.45;100315.38;10452899;28;20072;-72
2023/03/15 07:15:10;;;;;;;12.30;5.80;;;;;;;1.99;72.84;100331.59;10435341;28;20037;-75
2023/03/15 07:20:13;;;;;;;13.20;5.18;;;;;;;2.29;73.52;100332.78;10442068;28;20067;-75
2023/03/15 07:25:22;;;;;;;14.73;6.88;;;;;;;2.74;73.45;100341.28;10430183;28;20092;-76
2023/03/15 07:30:25;;;;;;;10.55;5.88;;;;;;;2.43;71.56;100357.78;10439632;28;20092;-77
2023/03/15 07:35:28;;;;;;;14.15;6.38;;;;;;;2.75;71.42;100346.53;10438283;28;20036;-76
2023/03/15 07:40:33;;;;;;;17.77;6.10;;;;;;;2.94;70.68;100342.97;10413934;28;20033;-77
2023/03/15 07:45:35;;;;;;;13.50;5.47;;;;;;;3.23;67.56;100357.41;10444894;28;20689;-77
2023/03/15 07:50:38;;;;;;;17.08;5.57;;;;;;;2.55;70.13;100367.84;10425724;28;20034;-76
2023/03/15 07:55:43;;;;;;;10.25;5.18;;;;;;;3.20;69.26;100384.09;10442586;28;20117;-76
2023/03/15 08:00:46;;;;;;;11.18;4.80;;;;;;;2.19;71.85;100397.75;10439440;28;20057;-76
2023/03/15 08:05:49;;;;;;;13.52;5.47;;;;;;;3.08;70.09;100388.25;10435235;28;20091;-76
2023/03/15 08:10:54;;;;;;;13.50;5.47;;;;;;;3.38;67.84;100411.53;10436544;28;20113;-77
2023/03/15 08:15:57;;;;;;;9.68;4.53;;;;;;;3.21;68.42;100401.75;10432657;28;20042;-76
2023/03/15 08:21:00;;;;;;;9.60;4.93;;;;;;;3.25;68.03;100412.16;10431234;28;20048;-75
2023/03/15 08:26:05;;;;;;;13.57;4.55;;;;;;;3.04;67.50;100422.06;10431305;28;20050;-77
2023/03/15 08:31:08;;;;;;;12.38;4.60;;;;;;;2.99;69.14;100425.84;10443586;28;20436;-76
2023/03/15 08:36:11;;;;;;;11.65;4.95;;;;;;;2.93;70.15;100442.06;10429053;28;20079;-76
2023/03/15 08:41:16;;;;;;;17.05;5.88;;;;;;;3.43;68.45;100452.88;10439937;28;20045;-77
2023/03/15 08:46:20;;;;;;;14.15;4.88;;;;;;;3.34;67.11;100466.56;10441506;28;20065;-76
2023/03/15 08:51:24;;;;;;;12.65;5.28;;;;;;;4.12;65.40;100473.22;10433823;28;20055;-76
2023/03/15 08:56:28;;;;;;;13.65;4.70;;;;;;;4.67;63.88;100481.84;10419988;28;20154;-74
2023/03/15 09:01:31;;;;;;;14.70;4.90;;;;;;;4.53;61.43;100483.44;10407728;28;20041;-75
2023/03/15 09:06:34;;;;;;;12.18;4.30;;;;;;;3.54;62.87;100497.47;10418101;28;20124;-77
2023/03/15 09:11:38;;;;;;;14.18;4.50;;;;;;;5.76;61.15;100487.16;10411660;28;20152;-77
2023/03/15 09:16:41;;;;;;;9.63;3.75;;;;;;;4.87;59.97;100499.34;10411912;28;20046;-77
2023/03/15 09:21:45;;;;;;;7.53;3.83;;;;;;;4.51;60.77;100506.59;10416745;28;20400;-76
2023/03/15 09:26:50;;;;;;;11.48;3.75;;;;;;;3.98;61.79;100515.63;10411764;28;20052;-76
2023/03/15 09:31:52;;;;;;;12.60;4.00;;;;;;;3.84;64.19;100516.31;10412877;28;20081;-77
2023/03/15 09:36:55;;;;;;;14.50;5.45;;;;;;;4.46;62.09;100519.28;10408765;28;20053;-77
2023/03/15 09:42:02;;;;;;;13.43;4.53;;;;;;;4.56;60.46;100539.16;10410045;28;20130;-77
2023/03/15 09:47:31;;;;;;;11.32;3.83;;;;;;;5.19;60.39;100534.88;10410971;28;21760;-75
2023/03/15 09:52:42;;;;;;;10.40;3.08;;;;;;;5.93;55.63;100535.00;10407989;28;20075;-76
2023/03/15 09:57:50;;;;;;;9.45;3.40;;;;;;;5.43;60.11;100530.81;10404778;28;20059;-76
2023/03/15 10:03:00;;;;;;;9.52;2.80;;;;;;;4.09;61.87;100537.19;10404750;28;20049;-77
2023/03/15 10:08:03;;;;;;;9.60;3.78;;;;;;;5.62;58.21;100537.72;10405130;28;20183;-77
2023/03/15 10:13:20;;;;;;;13.43;3.50;;;;;;;5.86;58.05;100538.97;10412402;28;20044;-76
2023/03/15 10:18:42;;;;;;;8.35;1.83;;;;;;;5.13;53.82;100536.09;10402495;28;20049;-76
2023/03/15 10:23:51;;;;;;;14.15;3.55;;;;;;;7.03;52.60;100535.38;10398010;28;21292;-74
2023/03/15 10:28:55;;;;;;;8.90;2.83;;;;;;;6.05;51.10;100535.22;10414649;28;20175;-75
2023/03/15 10:33:58;;;;;;;10.88;2.90;;;;;;;6.10;54.92;100531.31;10412644;28;21217;-77
2023/03/15 10:39:00;;;;;;;6.82;2.60;;;;;;;6.32;53.84;100530.88;10409507;28;20041;-77
2023/03/15 10:44:07;;;;;;;6.40;2.80;;;;;;;6.10;51.86;100531.31;10415053;28;20056;-76
2023/03/15 10:49:12;;;;;;;7.05;2.42;;;;;;;6.79;53.35;100548.44;10411926;28;20052;-76
2023/03/15 10:54:18;;;;;;;6.35;2.38;;;;;;;5.23;49.90;100544.41;10411718;28;20068;-76
2023/03/15 10:59:25;;;;;;;6.15;1.73;;;;;;;5.50;48.15;100542.81;10417141;28;20557;-77
2023/03/15 11:04:30;;;;;;;6.63;1.67;;;;;;;5.44;51.02;100551.19;10384904;28;20140;-77
2023/03/15 11:09:40;;;;;;;6.70;2.05;;;;;;;4.77;52.71;100554.88;10388236;28;20048;-76
2023/03/15 11:14:47;;;;;;;6.20;1.75;;;;;;;6.71;47.67;100563.22;10400772;28;20052;-77
2023/03/15 11:19:55;;;;;;;7.28;1.90;;;;;;;6.07;45.33;100562.66;10393581;28;20052;-74
2023/03/15 11:24:58;;;;;;;4.97;1.70;;;;;;;5.48;49.14;100581.16;10418047;28;20052;-77
2023/03/15 11:30:04;;;;;;;7.85;2.38;;;;;;;7.44;46.01;100577.28;10404081;28;20806;-77
2023/03/15 11:35:12;;;;;;;5.43;1.60;;;;;;;8.57;41.13;100566.13;10401545;28;20190;-76
2023/03/15 11:40:20;;;;;;;7.93;1.70;;;;;;;6.29;45.36;100579.09;10402063;28;20057;-76
2023/03/15 11:45:34;;;;;;;10.27;2.08;;;;;;;7.81;45.69;100584.72;10398175;28;20250;-77
2023/03/15 11:50:57;;;;;;;2.60;1.15;;;;;;;9.98;37.99;100578.34;10398359;28;20591;-77
2023/03/15 11:56:20;;;;;;;5.90;1.23;;;;;;;7.91;41.73;100592.03;10403902;28;20439;-77
2023/03/15 12:01:26;;;;;;;6.95;2.00;;;;;;;9.91;38.28;100586.00;10389144;28;20041;-76
2023/03/15 12:06:47;;;;;;;4.22;1.25;;;;;;;8.18;39.70;100588.47;10397913;28;21623;-77
2023/03/15 12:11:50;;;;;;;6.40;1.42;;;;;;;7.86;40.35;100591.47;10401823;28;20504;-77
2023/03/15 12:17:12;;;;;;;4.10;1.27;;;;;;;6.51;41.82;100602.69;10394436;28;20581;-77
2023/03/15 12:22:16;;;;;;;6.28;1.48;;;;;;;8.21;40.79;100593.59;10405440;28;20068;-74
2023/03/15 12:27:21;;;;;;;2.75;0.90;;;;;;;9.10;36.22;100581.19;10393657;28;20115;-76
2023/03/15 12:32:26;;;;;;;3.10;1.38;;;;;;;10.02;35.76;100580.69;10411302;28;20041;-77
2023/03/15 12:37:46;;;;;;;2.42;0.90;;;;;;;7.21;39.28;100597.50;10400379;28;20055;-77
2023/03/15 12:43:07;;;;;;;2.45;0.75;;;;;;;6.12;42.50;100606.78;10406437;28;20041;-77
2023/03/15 12:48:28;;;;;;;4.20;1.27;;;;;;;7.24;41.69;100612.44;10401542;28;20053;-77
2023/03/15 12:53:42;;;;;;;3.50;1.30;;;;;;;8.28;39.51;100594.91;10397519;28;20505;-76
2023/03/15 12:58:48;;;;;;;5.95;1.10;;;;;;;14.07;32.32;100580.81;10397305;28;20724;-74
2023/03/15 13:03:55;;;;;;;5.95;1.17;;;;;;;14.67;29.79;100586.91;10402157;28;20098;-77
2023/03/15 13:09:03;;;;;;;3.15;1.00;;;;;;;12.60;30.91;100587.63;10406863;28;20053;-78
2023/03/15 13:14:32;;;;;;;4.88;1.05;;;;;;;10.56;33.14;100593.53;10400736;28;20057;-77
2023/03/15 13:19:41;;;;;;;2.65;0.70;;;;;;;10.48;34.60;100603.19;10390710;28;20704;-77
2023/03/15 13:24:56;;;;;;;2.58;0.80;;;;;;;9.37;37.40;100607.84;10396232;28;20059;-76
2023/03/15 13:29:59;;;;;;;3.10;0.77;;;;;;;11.41;34.29;100597.59;10414252;28;20048;-77
2023/03/15 13:35:03;;;;;;;4.38;0.85;;;;;;;17.14;28.93;100585.69;10395468;28;20477;-75
2023/03/15 13:40:14;;;;;;;2.20;1.10;;;;;;;16.78;25.56;100588.53;10407373;28;20060;-76
2023/03/15 13:45:17;;;;;;;4.90;1.17;;;;;;;19.58;24.57;100600.41;10404392;28;20041;-77
2023/03/15 13:50:22;;;;;;;4.18;0.80;;;;;;;17.48;26.09;100605.53;10404160;28;20045;-75
2023/03/15 13:55:31;;;;;;;3.60;1.10;;;;;;;15.45;27.63;100619.97;10417016;28;20634;-76
2023/03/15 14:00:36;;;;;;;1.95;0.98;;;;;;;18.72;27.98;100622.88;10420206;28;20122;-76
2023/03/15 14:05:47;;;;;;;1.58;1.17;;;;;;;15.15;33.65;100649.97;10424845;28;20048;-76
2023/03/15 14:11:02;;;;;;;2.83;0.90;;;;;;;11.13;40.31;100661.66;10423565;28;20045;-77
2023/03/15 14:16:07;;;;;;;2.63;0.90;;;;;;;9.48;43.53;100673.13;10421441;28;20084;-76
2023/03/15 14:21:15;;;;;;;5.20;1.27;;;;;;;8.97;45.37;100669.66;10409336;28;20053;-75
2023/03/15 14:26:21;;;;;;;4.40;1.17;;;;;;;8.59;46.29;100667.81;10418722;28;20049;-75
2023/03/15 14:31:26;;;;;;;4.03;1.10;;;;;;;11.14;43.85;100660.72;10411488;28;20050;-77
2023/03/15 14:36:34;;;;;;;3.25;1.10;;;;;;;16.09;35.62;100650.63;10413435;28;20052;-75
2023/03/15 14:41:37;;;;;;;3.17;1.23;;;;;;;18.20;31.39;100653.13;10391494;28;20045;-77
2023/03/15 14:46:41;;;;;;;4.18;1.25;;;;;;;15.60;33.55;100655.50;10409678;28;20040;-76
2023/03/15 14:51:46;;;;;;;6.22;1.45;;;;;;;13.40;36.01;100666.09;10416162;28;20123;-77
2023/03/15 14:56:49;;;;;;;7.53;1.65;;;;;;;10.55;40.41;100674.22;10404705;28;20049;-77
2023/03/15 15:01:54;;;;;;;4.97;1.50;;;;;;;10.59;41.65;100667.66;10411550;28;20110;-77
2023/03/15 15:07:01;;;;;;;5.78;1.40;;;;;;;10.97;41.50;100675.44;10406785;28;20179;-76
2023/03/15 15:12:05;;;;;;;4.63;1.02;;;;;;;11.95;40.24;100672.97;10406045;28;20057;-78
2023/03/15 15:17:08;;;;;;;2.22;1.13;;;;;;;12.68;37.94;100670.50;10422907;28;20120;-76
2023/03/15 15:22:12;;;;;;;5.10;0.95;;;;;;;13.17;35.72;100677.06;10415910;28;20041;-78
2023/03/15 15:27:15;;;;;;;3.85;1.20;;;;;;;13.17;35.83;100670.81;10412433;28;20116;-78
2023/03/15 15:32:18;;;;;;;4.32;1.08;;;;;;;12.77;35.35;100667.00;10401308;28;20041;-78
2023/03/15 15:37:22;;;;;;;6.05;0.90;;;;;;;12.40;33.49;100677.38;10414885;28;20053;-78
2023/03/15 15:42:25;;;;;;;5.13;0.93;;;;;;;11.62;36.39;100678.41;10406642;28;20049;-78
2023/03/15 15:47:28;;;;;;;4.32;1.10;;;;;;;11.05;37.53;100683.75;10418309;28;20055;-77
2023/03/15 15:52:32;;;;;;;4.50;1.15;;;;;;;11.25;37.53;100678.69;10409268;28;20049;-78
2023/03/15 15:57:35;;;;;;;3.97;1.00;;;;;;;11.41;36.99;100684.56;10425384;28;20499;-78
2023/03/15 16:02:38;;;;;;;7.45;1.30;;;;;;;9.48;40.04;100683.00;10410977;28;20743;-77
2023/03/15 16:07:42;;;;;;;4.45;0.82;;;;;;;8.35;40.82;100689.03;10398135;28;20037;-76
2023/03/15 16:12:45;;;;;;;7.50;1.35;;;;;;;8.71;40.23;100692.88;10416313;28;20184;-78
2023/03/15 16:17:49;;;;;;;2.03;1.08;;;;;;;8.26;40.17;100685.16;10413849;28;20577;-78
2023/03/15 16:22:57;;;;;;;3.58;0.82;;;;;;;7.97;40.97;100699.56;10414531;28;20699;-77
2023/03/15 16:28:02;;;;;;;4.80;1.70;;;;;;;8.07;41.35;100701.56;10384671;28;20130;-78
2023/03/15 16:33:14;;;;;;;3.90;0.90;;;;;;;7.69;42.31;100704.88;10411712;28;20072;-75
2023/03/15 16:38:25;;;;;;;5.07;0.70;;;;;;;7.64;42.08;100703.47;10399040;28;20057;-77
2023/03/15 16:43:28;;;;;;;6.22;1.35;;;;;;;7.46;41.81;100703.69;10402446;28;20044;-77
2023/03/15 16:48:30;;;;;;;14.90;1.85;;;;;;;7.77;41.17;100711.56;10404460;28;21768;-77
2023/03/15 16:53:36;;;;;;;4.07;0.90;;;;;;;7.19;42.70;100710.75;10418177;28;20044;-75
2023/03/15 16:58:39;;;;;;;3.88;1.00;;;;;;;7.27;42.05;100724.50;10403484;28;20049;-77
2023/03/15 17:03:42;;;;;;;4.45;1.27;;;;;;;6.95;42.60;100726.47;10397045;28;20064;-77
2023/03/15 17:08:47;;;;;;;2.83;1.40;;;;;;;6.59;42.63;100725.88;10408308;28;20060;-77
2023/03/15 17:13:50;;;;;;;2.70;0.88;;;;;;;6.40;42.96;100733.22;10403479;28;20238;-75
2023/03/15 17:18:52;;;;;;;5.22;1.40;;;;;;;6.29;43.07;100741.00;10382743;28;20415;-77
2023/03/15 17:23:57;;;;;;;37.97;22.95;;;;;;;6.24;43.69;100740.41;10400766;28;20063;-77
2023/03/15 17:29:00;;;;;;;21.70;14.60;;;;;;;6.14;44.92;100740.03;10409242;28;20049;-77
2023/03/15 17:34:02;;;;;;;8.95;3.10;;;;;;;6.02;46.41;100744.28;10411000;28;20049;-77
2023/03/15 17:39:11;;;;;;;9.63;3.35;;;;;;;5.84;47.22;100748.84;10415539;28;20057;-77
2023/03/15 17:44:14;;;;;;;7.80;3.13;;;;;;;5.76;47.80;100752.84;10407003;28;20051;-77
2023/03/15 17:49:16;;;;;;;7.50;2.20;;;;;;;5.65;48.30;100753.44;10413544;28;20049;-76
2023/03/15 17:54:21;;;;;;;8.55;3.13;;;;;;;5.54;48.40;100759.38;10419870;28;20044;-78
2023/03/15 17:59:24;;;;;;;17.40;5.55;;;;;;;5.36;48.38;100758.56;10414922;28;20140;-78
2023/03/15 18:04:27;;;;;;;9.50;3.78;;;;;;;5.22;49.00;100763.75;10401043;28;20053;-77
2023/03/15 18:09:31;;;;;;;9.25;3.67;;;;;;;5.13;48.97;100770.44;10423175;28;20037;-77
2023/03/15 18:14:36;;;;;;;11.73;3.85;;;;;;;5.05;49.27;100765.50;10415243;28;20060;-77
2023/03/15 18:19:39;;;;;;;14.27;3.35;;;;;;;5.01;49.67;100777.22;10421012;28;21309;-77
2023/03/15 18:24:43;;;;;;;10.68;5.38;;;;;;;4.88;50.22;100776.09;10415046;28;20527;-76
2023/03/15 18:29:48;;;;;;;10.35;4.85;;;;;;;4.62;50.26;100780.09;10407369;28;20609;-78
2023/03/15 18:34:51;;;;;;;7.82;4.63;;;;;;;4.59;49.92;100775.78;10426741;28;20050;-75
2023/03/15 18:39:56;;;;;;;5.00;2.83;;;;;;;4.62;48.85;100786.28;10420174;28;20504;-77
2023/03/15 18:44:58;;;;;;;10.10;2.95;;;;;;;4.62;47.23;100790.75;10414545;28;20132;-78
2023/03/15 18:50:03;;;;;;;8.25;3.67;;;;;;;4.59;47.32;100785.56;10420980;28;20045;-79
2023/03/15 18:55:16;;;;;;;5.47;2.90;;;;;;;4.48;47.61;100787.91;10411090;28;20060;-78
2023/03/15 19:00:24;;;;;;;8.85;3.47;;;;;;;4.37;47.98;100791.09;10422002;28;20057;-77
2023/03/15 19:05:29;;;;;;;13.13;2.70;;;;;;;4.32;46.84;100804.59;10420016;28;20122;-78
2023/03/15 19:10:33;;;;;;;9.30;2.08;;;;;;;4.32;45.50;100799.28;10411033;28;20675;-77
2023/03/15 19:15:36;;;;;;;5.82;2.25;;;;;;;4.30;45.18;100805.63;10405800;28;20043;-76
2023/03/15 19:20:38;;;;;;;12.75;2.70;;;;;;;4.28;45.38;100823.44;10396065;28;20412;-77
2023/03/15 19:25:43;;;;;;;7.25;3.40;;;;;;;4.13;46.08;100820.56;10406535;28;20045;-78
2023/03/15 19:30:45;;;;;;;11.90;3.35;;;;;;;3.95;46.69;100821.47;10412194;28;20041;-77
2023/03/15 19:35:48;;;;;;;10.23;2.92;;;;;;;3.94;46.69;100820.56;10430280;28;20069;-76
2023/03/15 19:40:57;;;;;;;10.98;2.88;;;;;;;3.90;46.81;100831.44;10399050;28;20407;-76
2023/03/15 19:46:03;;;;;;;9.85;3.15;;;;;;;3.71;47.03;100812.81;10402494;28;20057;-78
2023/03/15 19:51:06;;;;;;;5.88;2.83;;;;;;;3.67;47.18;100819.19;10400627;28;20053;-79
2023/03/15 19:56:11;;;;;;;13.85;3.20;;;;;;;3.42;47.38;100832.69;10420660;28;20121;-77
2023/03/15 20:01:14;;;;;;;11.45;3.92;;;;;;;3.32;47.44;100842.00;10424429;28;20045;-77
2023/03/15 20:06:17;;;;;;;8.48;2.47;;;;;;;3.36;47.48;100831.19;10411986;28;20041;-76
2023/03/15 20:11:23;;;;;;;9.32;3.00;;;;;;;3.41;47.21;100839.81;10419125;28;20128;-76
2023/03/15 20:16:27;;;;;;;6.65;3.33;;;;;;;3.44;47.37;100836.16;10408713;28;20041;-77
2023/03/15 20:21:29;;;;;;;8.13;3.80;;;;;;;3.37;47.49;100838.22;10404585;28;20065;-76
2023/03/15 20:26:34;;;;;;;8.68;3.25;;;;;;;3.26;47.84;100848.44;10385492;28;20061;-76
2023/03/15 20:31:37;;;;;;;9.25;3.80;;;;;;;3.21;48.20;100855.72;10387830;28;20697;-76
2023/03/15 20:36:40;;;;;;;7.40;3.15;;;;;;;3.17;48.73;100848.84;10411157;28;20156;-78
2023/03/15 20:41:44;;;;;;;7.75;2.70;;;;;;;3.19;49.15;100869.09;10419117;28;20920;-77
2023/03/15 20:46:47;;;;;;;7.53;3.17;;;;;;;3.16;49.55;100866.56;10417889;28;20045;-76
2023/03/15 20:51:50;;;;;;;10.43;5.05;;;;;;;2.90;50.90;100864.13;10418769;28;20079;-75
2023/03/15 20:56:55;;;;;;;16.45;5.82;;;;;;;2.66;52.22;100868.66;10420248;28;20053;-77
2023/03/15 21:01:58;;;;;;;15.60;5.50;;;;;;;2.55;52.88;100869.06;10418254;28;20508;-78
2023/03/15 21:07:03;;;;;;;11.48;5.45;;;;;;;2.51;52.71;100863.00;10422589;28;20070;-76
2023/03/15 21:12:07;;;;;;;10.98;4.85;;;;;;;2.44;53.12;100858.00;10414835;28;20051;-77
2023/03/15 21:17:13;;;;;;;10.98;6.07;;;;;;;2.24;54.40;100853.50;10413917;28;20048;-77
2023/03/15 21:22:17;;;;;;;21.73;8.23;;;;;;;2.25;54.54;100858.75;10425659;28;20047;-77
2023/03/15 21:27:21;;;;;;;20.83;6.60;;;;;;;2.22;54.74;100855.34;10393927;28;21240;-78
2023/03/15 21:32:25;;;;;;;14.77;6.18;;;;;;;2.33;54.35;100859.31;10421577;28;20104;-77
2023/03/15 21:37:28;;;;;;;11.00;6.20;;;;;;;2.35;54.52;100861.88;10416990;28;20041;-76
2023/03/15 21:42:32;;;;;;;10.80;5.80;;;;;;;2.34;54.64;100857.53;10420415;28;20042;-75
2023/03/15 21:47:35;;;;;;;14.48;6.72;;;;;;;2.28;55.24;100855.97;10467892;28;20040;-75
2023/03/15 21:52:38;;;;;;;12.05;6.82;;;;;;;2.17;55.18;100861.69;10461753;28;20037;-75
2023/03/15 21:57:44;;;;;;;13.70;8.05;;;;;;;2.01;56.28;100862.34;10456241;28;20061;-75
2023/03/15 22:02:47;;;;;;;14.82;7.13;;;;;;;1.93;56.45;100868.78;10437466;28;20065;-75
2023/03/15 22:07:50;;;;;;;13.35;7.53;;;;;;;1.89;56.96;100867.19;10456447;28;20543;-74
2023/03/15 22:12:54;;;;;;;13.48;7.30;;;;;;;1.83;57.11;100869.16;10438518;28;20033;-77
2023/03/15 22:17:57;;;;;;;14.77;7.57;;;;;;;1.69;57.99;100865.25;10448576;28;20037;-75
2023/03/15 22:23:03;;;;;;;14.27;6.07;;;;;;;1.64;57.58;100867.19;10429858;28;20068;-75
2023/03/15 22:28:07;;;;;;;11.68;5.93;;;;;;;1.58;57.52;100861.25;10445579;28;20449;-75
2023/03/15 22:33:10;;;;;;;13.00;7.65;;;;;;;1.62;56.95;100860.22;10442000;28;20090;-75
2023/03/15 22:38:14;;;;;;;21.27;10.35;;;;;;;1.54;57.63;100873.75;10432440;28;20127;-75
2023/03/15 22:43:18;;;;;;;15.63;6.85;;;;;;;1.61;57.50;100871.75;10442634;28;20043;-76
2023/03/15 22:48:21;;;;;;;13.20;6.32;;;;;;;1.61;57.15;100871.75;10429426;28;20042;-77
2023/03/15 22:53:24;;;;;;;16.48;6.35;;;;;;;1.58;57.39;100856.81;10443175;28;20389;-75
2023/03/15 22:58:28;;;;;;;11.98;5.93;;;;;;;1.62;57.02;100866.41;10439255;28;20373;-74
2023/03/15 23:03:31;;;;;;;15.32;8.32;;;;;;;1.52;57.42;100864.13;10440985;28;20029;-76
2023/03/15 23:08:34;;;;;;;21.58;9.48;;;;;;;1.39;58.04;100853.97;10435053;28;20455;-75
2023/03/15 23:13:38;;;;;;;13.65;6.57;;;;;;;1.38;57.96;100869.94;10436967;28;20037;-75
2023/03/15 23:18:41;;;;;;;13.88;7.43;;;;;;;1.29;58.46;100865.81;10433657;28;20072;-76
2023/03/15 23:23:44;;;;;;;17.23;5.90;;;;;;;1.15;59.05;100870.69;10437600;28;20056;-74
2023/03/15 23:28:48;;;;;;;13.95;8.05;;;;;;;1.12;59.49;100876.09;10439934;28;20061;-75
2023/03/15 23:33:51;;;;;;;14.50;6.40;;;;;;;1.11;59.58;100879.69;10427102;28;20108;-74
2023/03/15 23:38:54;;;;;;;15.55;7.93;;;;;;;1.08;59.84;100872.69;10444422;28;20437;-74